Hammer, South Dakota
Current Conditions -  °F | °C
As of 7:16 PM on Tuesday 27 Jan 2015 (Local Time) from KETH Reporting Station
Overcast Overcast  
Wind Chill: 19°   Ceiling: 700
Heat Index: 30°   Visibility: 10mi
Dew Point: 30°   Wind: 15mph
Humidity: 100%   Direction: 130°SE
Pressure: 30"   Gusts: NA
Location:  45.8778°N, 96.9166°W
Report Text: KETH 280116Z AUTO 13013KT 10SM OVC007 M01/M01 A3000 RMK AO2
Loading
Personal Weather Stations






























Interactive Weather Map New forecast layout! Learn more

10-Day Weather Forecast

Advertisements
Track Severe Weather on mobile